Time,TemperatureF,DewpointF,PressureIn,WindDirection,WindDirectionDegrees,WindSpeedMPH,WindSpeedGustMPH,Humidity,HourlyPrecipIn,Conditions,Clouds,dailyrainin,SoftwareType,DateUTC
2013-09-01 00:00:00,72.5,59.2,29.76,WNW,302,5.0,5.0,63,0.00,,,0.00,Wunderground v.1.15,2013-09-01 07:00:00,
2013-09-01 00:10:00,72.4,59.1,29.76,NW,305,5.0,5.0,63,0.00,,,0.00,Wunderground v.1.15,2013-09-01 07:10:00,
2013-09-01 00:20:00,71.7,59.3,29.76,WNW,303,4.0,5.0,65,0.00,,,0.00,Wunderground v.1.15,2013-09-01 07:20:00,
2013-09-01 00:25:00,72.0,59.6,29.76,WNW,290,5.0,6.0,65,0.00,,,0.00,Wunderground v.1.15,2013-09-01 07:25:00,
2013-09-01 00:30:00,72.5,59.6,29.76,WNW,290,5.0,5.0,64,0.00,,,0.00,Wunderground v.1.15,2013-09-01 07:30:00,
2013-09-01 00:35:00,72.4,59.1,29.76,WNW,290,4.0,5.0,63,0.00,,,0.00,Wunderground v.1.15,2013-09-01 07:35:00,
2013-09-01 00:40:00,72.3,59.0,29.76,WNW,290,3.0,4.0,63,0.00,,,0.00,Wunderground v.1.15,2013-09-01 07:40:00,
2013-09-01 00:50:00,71.6,60.1,29.76,WNW,290,1.0,1.0,67,0.00,,,0.00,Wunderground v.1.15,2013-09-01 07:50:00,
2013-09-01 00:55:00,70.3,59.6,29.76,WNW,302,1.0,1.0,69,0.00,,,0.00,Wunderground v.1.15,2013-09-01 07:55:00,
2013-09-01 01:00:00,69.7,59.5,29.76,WNW,302,1.0,1.0,70,0.00,,,0.00,Wunderground v.1.15,2013-09-01 08:00:00,
2013-09-01 01:10:00,69.6,59.4,29.76,WNW,302,0.0,0.0,70,0.00,,,0.00,Wunderground v.1.15,2013-09-01 08:10:00,
2013-09-01 01:15:00,69.2,59.0,29.76,WNW,302,0.0,0.0,70,0.00,,,0.00,Wunderground v.1.15,2013-09-01 08:15:00,
2013-09-01 01:20:00,68.9,59.1,29.76,WNW,302,0.0,0.0,71,0.00,,,0.00,Wunderground v.1.15,2013-09-01 08:20:00,
2013-09-01 01:25:00,68.6,58.8,29.76,WNW,302,0.0,1.0,71,0.00,,,0.00,Wunderground v.1.15,2013-09-01 08:25:00,
2013-09-01 01:30:00,68.5,58.7,29.76,WNW,302,2.0,4.0,71,0.00,,,0.00,Wunderground v.1.15,2013-09-01 08:30:00,
2013-09-01 01:35:00,68.8,59.0,29.76,WNW,302,4.0,4.0,71,0.00,,,0.00,Wunderground v.1.15,2013-09-01 08:35:00,
2013-09-01 01:40:00,68.8,59.0,29.76,WNW,302,4.0,5.0,71,0.00,,,0.00,Wunderground v.1.15,2013-09-01 08:40:00,
2013-09-01 01:45:00,68.7,58.9,29.76,WNW,302,4.0,5.0,71,0.00,,,0.00,Wunderground v.1.15,2013-09-01 08:45:00,
2013-09-01 01:50:00,68.7,58.9,29.76,WNW,302,4.0,4.0,71,0.00,,,0.00,Wunderground v.1.15,2013-09-01 08:50:00,
2013-09-01 01:55:00,68.6,58.8,29.76,WNW,302,3.0,4.0,71,0.00,,,0.00,Wunderground v.1.15,2013-09-01 08:55:00,
2013-09-01 02:00:00,68.3,58.9,29.76,WNW,302,1.0,1.0,72,0.00,,,0.00,Wunderground v.1.15,2013-09-01 09:00:00,
2013-09-01 02:10:00,67.9,58.9,29.76,WNW,302,0.0,2.0,73,0.00,,,0.00,Wunderground v.1.15,2013-09-01 09:10:00,
2013-09-01 02:15:00,68.1,58.7,29.76,WNW,302,1.0,2.0,72,0.00,,,0.00,Wunderground v.1.15,2013-09-01 09:15:00,
2013-09-01 02:20:00,67.9,58.9,29.76,WNW,302,1.0,1.0,73,0.00,,,0.00,Wunderground v.1.15,2013-09-01 09:20:00,
2013-09-01 02:25:00,67.2,58.6,29.76,WNW,302,0.0,1.0,74,0.00,,,0.00,Wunderground v.1.15,2013-09-01 09:25:00,
2013-09-01 02:30:00,66.5,58.7,29.76,WNW,302,0.0,0.0,76,0.00,,,0.00,Wunderground v.1.15,2013-09-01 09:30:00,
2013-09-01 02:40:00,65.7,58.7,29.76,WNW,302,0.0,0.0,78,0.00,,,0.00,Wunderground v.1.15,2013-09-01 09:40:00,
2013-09-01 02:45:00,64.9,58.2,29.76,WNW,303,1.0,1.0,79,0.00,,,0.00,Wunderground v.1.15,2013-09-01 09:45:00,
2013-09-01 02:50:00,64.5,58.5,29.76,WNW,303,1.0,1.0,81,0.00,,,0.00,Wunderground v.1.15,2013-09-01 09:50:00,
2013-09-01 02:55:00,64.4,58.4,29.76,WNW,303,0.0,1.0,81,0.00,,,0.00,Wunderground v.1.15,2013-09-01 09:55:00,
2013-09-01 03:00:00,63.9,58.3,29.76,WNW,303,0.0,0.0,82,0.00,,,0.00,Wunderground v.1.15,2013-09-01 10:00:00,
2013-09-01 03:10:00,63.6,58.3,29.76,WNW,303,0.0,0.0,83,0.00,,,0.00,Wunderground v.1.15,2013-09-01 10:10:00,
2013-09-01 03:20:00,63.9,58.3,29.76,WNW,303,0.0,0.0,82,0.00,,,0.00,Wunderground v.1.15,2013-09-01 10:20:00,
2013-09-01 03:25:00,64.6,58.6,29.76,WNW,303,0.0,0.0,81,0.00,,,0.00,Wunderground v.1.15,2013-09-01 10:25:00,
2013-09-01 03:30:00,64.8,58.8,29.76,WNW,303,0.0,0.0,81,0.00,,,0.00,Wunderground v.1.15,2013-09-01 10:30:00,
2013-09-01 03:35:00,64.7,58.7,29.76,WNW,303,0.0,0.0,81,0.00,,,0.00,Wunderground v.1.15,2013-09-01 10:35:00,
2013-09-01 03:40:00,64.6,58.6,29.76,WNW,303,0.0,0.0,81,0.00,,,0.00,Wunderground v.1.15,2013-09-01 10:40:00,
2013-09-01 03:45:00,64.3,58.3,29.76,WNW,303,0.0,0.0,81,0.00,,,0.00,Wunderground v.1.15,2013-09-01 10:45:00,
2013-09-01 03:50:00,64.1,58.5,29.76,WNW,303,0.0,0.0,82,0.00,,,0.00,Wunderground v.1.15,2013-09-01 10:50:00,
2013-09-01 03:55:00,63.9,58.3,29.76,WNW,303,0.0,0.0,82,0.00,,,0.00,Wunderground v.1.15,2013-09-01 10:55:00,
2013-09-01 04:00:00,63.6,58.3,29.76,WNW,303,0.0,0.0,83,0.00,,,0.00,Wunderground v.1.15,2013-09-01 11:00:00,
2013-09-01 04:10:00,63.8,58.5,29.76,WNW,303,1.0,5.0,83,0.00,,,0.00,Wunderground v.1.15,2013-09-01 11:10:00,
2013-09-01 04:15:00,64.9,58.9,29.76,WNW,302,1.0,5.0,81,0.00,,,0.00,Wunderground v.1.15,2013-09-01 11:15:00,
2013-09-01 04:20:00,64.7,58.4,29.76,WNW,302,1.0,1.0,80,0.00,,,0.00,Wunderground v.1.15,2013-09-01 11:20:00,
2013-09-01 04:25:00,64.9,58.6,29.76,WNW,302,0.0,1.0,80,0.00,,,0.00,Wunderground v.1.15,2013-09-01 11:25:00,
2013-09-01 04:30:00,65.0,58.7,29.76,WNW,302,0.0,0.0,80,0.00,,,0.00,Wunderground v.1.15,2013-09-01 11:30:00,
2013-09-01 04:40:00,64.9,58.6,29.76,WNW,302,0.0,0.0,80,0.00,,,0.00,Wunderground v.1.15,2013-09-01 11:40:00,
2013-09-01 04:45:00,64.6,58.3,29.76,WNW,302,0.0,0.0,80,0.00,,,0.00,Wunderground v.1.15,2013-09-01 11:45:00,
2013-09-01 04:50:00,64.5,58.2,29.76,WNW,302,0.0,0.0,80,0.00,,,0.00,Wunderground v.1.15,2013-09-01 11:50:00,
2013-09-01 04:55:00,64.3,58.0,29.76,WNW,302,0.0,0.0,80,0.00,,,0.00,Wunderground v.1.15,2013-09-01 11:55:00,
2013-09-01 05:00:00,64.1,58.1,29.76,WNW,302,1.0,3.0,81,0.00,,,0.00,Wunderground v.1.15,2013-09-01 12:00:00,
2013-09-01 05:10:00,63.8,57.9,29.76,WNW,302,2.0,2.0,81,0.00,,,0.00,Wunderground v.1.15,2013-09-01 12:10:00,
2013-09-01 05:15:00,63.4,57.8,29.76,WNW,302,1.0,2.0,82,0.00,,,0.00,Wunderground v.1.15,2013-09-01 12:15:00,
2013-09-01 05:20:00,63.1,57.9,29.76,WNW,302,1.0,1.0,83,0.00,,,0.00,Wunderground v.1.15,2013-09-01 12:20:00,
2013-09-01 05:25:00,63.0,57.8,29.76,WNW,302,1.0,1.0,83,0.00,,,0.00,Wunderground v.1.15,2013-09-01 12:25:00,
2013-09-01 05:30:00,62.8,57.6,29.76,WNW,302,0.0,0.0,83,0.00,,,0.00,Wunderground v.1.15,2013-09-01 12:30:00,
2013-09-01 05:35:00,62.7,57.8,29.76,WNW,302,0.0,0.0,84,0.00,,,0.00,Wunderground v.1.15,2013-09-01 12:35:00,
2013-09-01 05:40:00,62.4,57.8,29.76,WNW,302,1.0,2.0,85,0.00,,,0.00,Wunderground v.1.15,2013-09-01 12:40:00,
2013-09-01 05:45:00,62.3,57.7,29.76,WNW,302,1.0,2.0,85,0.00,,,0.00,Wunderground v.1.15,2013-09-01 12:45:00,
2013-09-01 05:50:00,62.2,58.0,29.76,WNW,302,0.0,0.0,86,0.00,,,0.00,Wunderground v.1.15,2013-09-01 12:50:00,
2013-09-01 06:00:00,62.2,58.0,29.76,WNW,302,0.0,0.0,86,0.00,,,0.00,Wunderground v.1.15,2013-09-01 13:00:00,
2013-09-01 06:10:00,62.2,58.0,29.76,WNW,290,0.0,0.0,86,0.00,,,0.00,Wunderground v.1.15,2013-09-01 13:10:00,
2013-09-01 06:15:00,62.4,58.2,29.76,WNW,290,0.0,2.0,86,0.00,,,0.00,Wunderground v.1.15,2013-09-01 13:15:00,
2013-09-01 06:20:00,62.9,58.3,29.76,WNW,290,0.0,1.0,85,0.00,,,0.00,Wunderground v.1.15,2013-09-01 13:20:00,
2013-09-01 06:25:00,63.3,58.7,29.76,WNW,290,0.0,1.0,85,0.00,,,0.00,Wunderground v.1.15,2013-09-01 13:25:00,
2013-09-01 06:35:00,64.1,59.5,29.76,NNE,19,0.0,0.0,85,0.00,,,0.00,Wunderground v.1.15,2013-09-01 13:35:00,
2013-09-01 06:40:00,64.5,59.6,29.76,North,10,0.0,0.0,84,0.00,,,0.00,Wunderground v.1.15,2013-09-01 13:40:00,
2013-09-01 06:45:00,64.9,59.6,29.76,North,10,0.0,0.0,83,0.00,,,0.00,Wunderground v.1.15,2013-09-01 13:45:00,
2013-09-01 06:55:00,66.1,60.4,29.76,North,10,0.0,0.0,82,0.00,,,0.00,Wunderground v.1.15,2013-09-01 13:55:00,
2013-09-01 07:00:00,67.2,60.8,29.76,North,10,0.0,0.0,80,0.00,,,0.00,Wunderground v.1.15,2013-09-01 14:00:00,
2013-09-01 07:10:00,68.4,61.3,29.76,North,10,0.0,0.0,78,0.00,,,0.00,Wunderground v.1.15,2013-09-01 14:10:00,
2013-09-01 07:15:00,69.1,61.6,29.76,North,10,0.0,0.0,77,0.00,,,0.00,Wunderground v.1.15,2013-09-01 14:15:00,
2013-09-01 07:25:00,71.3,62.6,29.76,North,10,0.0,0.0,74,0.00,,,0.00,Wunderground v.1.15,2013-09-01 14:25:00,
2013-09-01 07:30:00,72.2,63.4,29.76,North,10,0.0,0.0,74,0.00,,,0.00,Wunderground v.1.15,2013-09-01 14:30:00,
2013-09-01 07:35:00,72.4,62.5,29.76,North,10,0.0,0.0,71,0.00,,,0.00,Wunderground v.1.15,2013-09-01 14:35:00,
2013-09-01 07:40:00,73.1,61.9,29.76,North,10,0.0,0.0,68,0.00,,,0.00,Wunderground v.1.15,2013-09-01 14:40:00,
2013-09-01 07:50:00,74.7,62.6,29.76,ENE,58,0.0,0.0,66,0.00,,,0.00,Wunderground v.1.15,2013-09-01 14:50:00,
2013-09-01 07:55:00,75.2,61.7,29.76,ENE,58,0.0,0.0,63,0.00,,,0.00,Wunderground v.1.15,2013-09-01 14:55:00,
2013-09-01 08:00:00,75.8,61.8,29.76,ENE,58,0.0,0.0,62,0.00,,,0.00,Wunderground v.1.15,2013-09-01 15:00:00,
2013-09-01 08:10:00,77.0,62.5,29.76,ENE,59,0.0,0.0,61,0.00,,,0.00,Wunderground v.1.15,2013-09-01 15:10:00,
2013-09-01 08:20:00,77.9,62.9,29.76,ENE,61,0.0,0.0,60,0.00,,,0.00,Wunderground v.1.15,2013-09-01 15:20:00,
2013-09-01 08:25:00,78.5,63.0,29.76,ENE,61,1.0,1.0,59,0.00,,,0.00,Wunderground v.1.15,2013-09-01 15:25:00,
2013-09-01 08:30:00,78.8,63.3,29.76,ENE,59,1.0,1.0,59,0.00,,,0.00,Wunderground v.1.15,2013-09-01 15:30:00,
2013-09-01 08:40:00,78.5,63.0,29.76,NE,50,1.0,1.0,59,0.00,,,0.00,Wunderground v.1.15,2013-09-01 15:40:00,
2013-09-01 08:45:00,78.7,63.2,29.76,NE,50,0.0,1.0,59,0.00,,,0.00,Wunderground v.1.15,2013-09-01 15:45:00,
2013-09-01 08:50:00,78.7,62.2,29.76,NE,40,0.0,0.0,57,0.00,,,0.00,Wunderground v.1.15,2013-09-01 15:50:00,
2013-09-01 08:55:00,78.9,63.4,29.76,NE,37,1.0,3.0,59,0.00,,,0.00,Wunderground v.1.15,2013-09-01 15:55:00,
2013-09-01 09:00:00,79.0,62.5,29.76,NNE,28,1.0,3.0,57,0.00,,,0.00,Wunderground v.1.15,2013-09-01 16:00:00,
2013-09-01 09:10:00,79.0,62.5,29.76,NNE,27,1.0,3.0,57,0.00,,,0.00,Wunderground v.1.15,2013-09-01 16:10:00,
2013-09-01 09:15:00,79.2,62.1,29.76,NE,34,2.0,3.0,56,0.00,,,0.00,Wunderground v.1.15,2013-09-01 16:15:00,
2013-09-01 09:20:00,79.6,62.0,29.76,NNE,15,3.0,3.0,55,0.00,,,0.00,Wunderground v.1.15,2013-09-01 16:20:00,
2013-09-01 09:25:00,79.8,63.2,29.76,NNE,24,2.0,3.0,57,0.00,,,0.00,Wunderground v.1.15,2013-09-01 16:25:00,
2013-09-01 09:30:00,80.2,62.6,29.76,NE,49,2.0,3.0,55,0.00,,,0.00,Wunderground v.1.15,2013-09-01 16:30:00,
2013-09-01 09:35:00,80.5,62.3,29.76,NNE,30,2.0,3.0,54,0.00,,,0.00,Wunderground v.1.15,2013-09-01 16:35:00,
2013-09-01 09:40:00,80.8,62.1,29.76,NNE,30,1.0,3.0,53,0.00,,,0.00,Wunderground v.1.15,2013-09-01 16:40:00,
2013-09-01 09:45:00,81.0,62.8,29.76,NNE,27,1.0,3.0,54,0.00,,,0.00,Wunderground v.1.15,2013-09-01 16:45:00,
2013-09-01 09:50:00,81.0,61.2,29.76,NNW,338,1.0,2.0,51,0.00,,,0.00,Wunderground v.1.15,2013-09-01 16:50:00,
2013-09-01 09:55:00,81.1,61.3,29.76,North,351,1.0,2.0,51,0.00,,,0.00,Wunderground v.1.15,2013-09-01 16:55:00,
2013-09-01 10:00:00,81.6,61.2,29.76,NNW,336,1.0,4.0,50,0.00,,,0.00,Wunderground v.1.15,2013-09-01 17:00:00,
2013-09-01 10:10:00,81.5,60.5,29.76,NNW,340,1.0,4.0,49,0.00,,,0.00,Wunderground v.1.15,2013-09-01 17:10:00,
2013-09-01 10:15:00,81.9,60.3,29.76,NNW,340,0.0,4.0,48,0.00,,,0.00,Wunderground v.1.15,2013-09-01 17:15:00,
2013-09-01 10:20:00,82.4,60.7,29.76,NNW,342,1.0,1.0,48,0.00,,,0.00,Wunderground v.1.15,2013-09-01 17:20:00,
2013-09-01 10:25:00,82.7,59.8,29.76,NNW,342,1.0,1.0,46,0.00,,,0.00,Wunderground v.1.15,2013-09-01 17:25:00,
2013-09-01 10:30:00,82.8,59.9,29.76,North,350,1.0,3.0,46,0.00,,,0.00,Wunderground v.1.15,2013-09-01 17:30:00,
2013-09-01 10:35:00,83.1,58.9,29.76,NE,36,1.0,3.0,44,0.00,,,0.00,Wunderground v.1.15,2013-09-01 17:35:00,
2013-09-01 10:40:00,83.4,58.6,29.76,NE,44,2.0,4.0,43,0.00,,,0.00,Wunderground v.1.15,2013-09-01 17:40:00,
2013-09-01 10:45:00,83.5,59.9,29.76,NNE,28,4.0,6.0,45,0.00,,,0.00,Wunderground v.1.15,2013-09-01 17:45:00,
2013-09-01 10:50:00,83.6,58.7,29.76,NNE,22,4.0,4.0,43,0.00,,,0.00,Wunderground v.1.15,2013-09-01 17:50:00,
2013-09-01 10:55:00,84.2,60.6,29.76,NNE,21,2.0,4.0,45,0.00,,,0.00,Wunderground v.1.15,2013-09-01 17:55:00,
2013-09-01 11:00:00,84.5,57.5,29.76,NNE,20,2.0,2.0,40,0.00,,,0.00,Wunderground v.1.15,2013-09-01 18:00:00,
2013-09-01 11:10:00,84.9,57.9,29.76,NE,42,2.0,6.0,40,0.00,,,0.00,Wunderground v.1.15,2013-09-01 18:10:00,
2013-09-01 11:15:00,84.8,56.4,29.76,NE,34,3.0,6.0,38,0.00,,,0.00,Wunderground v.1.15,2013-09-01 18:15:00,
2013-09-01 11:20:00,85.2,56.7,29.76,NNE,32,1.0,1.0,38,0.00,,,0.00,Wunderground v.1.15,2013-09-01 18:20:00,
2013-09-01 11:25:00,85.5,57.0,29.76,NNE,32,0.0,2.0,38,0.00,,,0.00,Wunderground v.1.15,2013-09-01 18:25:00,
2013-09-01 11:30:00,85.6,57.1,29.76,NE,49,1.0,3.0,38,0.00,,,0.00,Wunderground v.1.15,2013-09-01 18:30:00,
2013-09-01 11:35:00,86.0,57.4,29.76,NE,40,1.0,3.0,38,0.00,,,0.00,Wunderground v.1.15,2013-09-01 18:35:00,
2013-09-01 11:40:00,86.5,56.4,29.76,NNE,22,1.0,1.0,36,0.00,,,0.00,Wunderground v.1.15,2013-09-01 18:40:00,
2013-09-01 11:45:00,86.5,57.1,29.76,NNE,17,2.0,4.0,37,0.00,,,0.00,Wunderground v.1.15,2013-09-01 18:45:00,
2013-09-01 11:50:00,86.7,57.3,29.76,North,5,3.0,3.0,37,0.00,,,0.00,Wunderground v.1.15,2013-09-01 18:50:00,
2013-09-01 11:55:00,86.8,56.6,29.76,NE,40,3.0,4.0,36,0.00,,,0.00,Wunderground v.1.15,2013-09-01 18:55:00,
2013-09-01 12:00:00,87.2,58.5,29.76,North,5,1.0,4.0,38,0.00,,,0.00,Wunderground v.1.15,2013-09-01 19:00:00,
2013-09-01 12:10:00,87.3,55.5,29.76,NNE,30,3.0,3.0,34,0.00,,,0.00,Wunderground v.1.15,2013-09-01 19:10:00,
2013-09-01 12:15:00,87.8,56.7,29.76,NE,35,2.0,3.0,35,0.00,,,0.00,Wunderground v.1.15,2013-09-01 19:15:00,
2013-09-01 12:20:00,88.1,56.2,29.76,NE,36,3.0,4.0,34,0.00,,,0.00,Wunderground v.1.15,2013-09-01 19:20:00,
2013-09-01 12:25:00,88.1,54.5,29.76,NNE,28,3.0,4.0,32,0.00,,,0.00,Wunderground v.1.15,2013-09-01 19:25:00,
2013-09-01 12:30:00,88.2,53.7,29.76,NE,49,3.0,4.0,31,0.00,,,0.00,Wunderground v.1.15,2013-09-01 19:30:00,
2013-09-01 12:35:00,88.5,53.1,29.76,NNE,19,4.0,4.0,30,0.00,,,0.00,Wunderground v.1.15,2013-09-01 19:35:00,
2013-09-01 12:40:00,88.8,51.5,29.76,North,5,4.0,4.0,28,0.00,,,0.00,Wunderground v.1.15,2013-09-01 19:40:00,
2013-09-01 12:45:00,89.0,55.3,29.76,North,9,4.0,4.0,32,0.00,,,0.00,Wunderground v.1.15,2013-09-01 19:45:00,
2013-09-01 12:55:00,89.6,51.2,29.76,North,355,5.0,5.0,27,0.00,,,0.00,Wunderground v.1.15,2013-09-01 19:55:00,
2013-09-01 13:00:00,89.9,51.4,29.76,NNE,19,4.0,5.0,27,0.00,,,0.00,Wunderground v.1.15,2013-09-01 20:00:00,
2013-09-01 13:10:00,90.3,51.8,29.76,NNE,24,3.0,7.0,27,0.00,,,0.00,Wunderground v.1.15,2013-09-01 20:10:00,
2013-09-01 13:20:00,90.2,51.7,29.76,North,360,4.0,4.0,27,0.00,,,0.00,Wunderground v.1.15,2013-09-01 20:20:00,
2013-09-01 13:25:00,90.3,51.8,29.76,NNE,26,4.0,6.0,27,0.00,,,0.00,Wunderground v.1.15,2013-09-01 20:25:00,
2013-09-01 13:30:00,90.3,53.7,29.76,NNE,13,5.0,5.0,29,0.00,,,0.00,Wunderground v.1.15,2013-09-01 20:30:00,
2013-09-01 13:35:00,90.2,52.7,29.76,North,9,4.0,5.0,28,0.00,,,0.00,Wunderground v.1.15,2013-09-01 20:35:00,
2013-09-01 13:40:00,90.4,52.9,29.76,North,5,4.0,7.0,28,0.00,,,0.00,Wunderground v.1.15,2013-09-01 20:40:00,
2013-09-01 13:45:00,90.7,54.1,29.76,NNE,21,4.0,7.0,29,0.00,,,0.00,Wunderground v.1.15,2013-09-01 20:45:00,
2013-09-01 13:50:00,90.9,53.3,29.76,NNE,30,3.0,5.0,28,0.00,,,0.00,Wunderground v.1.15,2013-09-01 20:50:00,
2013-09-01 13:55:00,90.8,56.0,29.76,NNE,28,4.0,5.0,31,0.00,,,0.00,Wunderground v.1.15,2013-09-01 20:55:00,
2013-09-01 14:00:00,90.6,54.0,29.76,North,360,5.0,5.0,29,0.00,,,0.00,Wunderground v.1.15,2013-09-01 21:00:00,
2013-09-01 14:10:00,90.5,54.8,29.76,NE,35,2.0,2.0,30,0.00,,,0.00,Wunderground v.1.15,2013-09-01 21:10:00,
2013-09-01 14:15:00,91.0,53.4,29.67,NNE,15,2.0,4.0,28,0.00,,,0.00,Wunderground v.1.15,2013-09-01 21:15:00,
2013-09-01 14:20:00,91.1,55.3,29.67,NNE,13,3.0,3.0,30,0.00,,,0.00,Wunderground v.1.15,2013-09-01 21:20:00,
2013-09-01 14:25:00,91.1,54.4,29.67,NNE,27,4.0,5.0,29,0.00,,,0.00,Wunderground v.1.15,2013-09-01 21:25:00,
2013-09-01 14:30:00,91.0,53.4,29.67,North,360,5.0,5.0,28,0.00,,,0.00,Wunderground v.1.15,2013-09-01 21:30:00,
2013-09-01 14:35:00,90.8,54.2,29.67,NNE,33,4.0,5.0,29,0.00,,,0.00,Wunderground v.1.15,2013-09-01 21:35:00,
2013-09-01 14:40:00,90.8,55.1,29.67,NE,46,4.0,4.0,30,0.00,,,0.00,Wunderground v.1.15,2013-09-01 21:40:00,
2013-09-01 14:45:00,91.2,57.2,29.67,NNE,15,4.0,4.0,32,0.00,,,0.00,Wunderground v.1.15,2013-09-01 21:45:00,
2013-09-01 14:50:00,91.2,55.4,29.67,NNE,24,3.0,3.0,30,0.00,,,0.00,Wunderground v.1.15,2013-09-01 21:50:00,
2013-09-01 14:55:00,90.9,55.2,29.67,NE,40,2.0,3.0,30,0.00,,,0.00,Wunderground v.1.15,2013-09-01 21:55:00,
2013-09-01 15:00:00,91.0,55.3,29.67,NE,37,2.0,3.0,30,0.00,,,0.00,Wunderground v.1.15,2013-09-01 22:00:00,
2013-09-01 15:10:00,91.3,56.4,29.67,North,5,2.0,3.0,31,0.00,,,0.00,Wunderground v.1.15,2013-09-01 22:10:00,
2013-09-01 15:15:00,90.4,54.7,29.67,North,360,1.0,4.0,30,0.00,,,0.00,Wunderground v.1.15,2013-09-01 22:15:00,
2013-09-01 15:20:00,89.1,54.5,29.67,NNE,25,3.0,6.0,31,0.00,,,0.00,Wunderground v.1.15,2013-09-01 22:20:00,
2013-09-01 15:25:00,89.4,54.8,29.67,NE,42,3.0,7.0,31,0.00,,,0.00,Wunderground v.1.15,2013-09-01 22:25:00,
2013-09-01 15:30:00,90.4,55.6,29.67,North,360,3.0,7.0,31,0.00,,,0.00,Wunderground v.1.15,2013-09-01 22:30:00,
2013-09-01 15:35:00,90.8,53.2,29.67,North,11,5.0,7.0,28,0.00,,,0.00,Wunderground v.1.15,2013-09-01 22:35:00,
2013-09-01 15:40:00,90.8,56.9,29.67,NE,36,3.0,3.0,32,0.00,,,0.00,Wunderground v.1.15,2013-09-01 22:40:00,
2013-09-01 15:50:00,90.9,56.1,29.67,NNW,335,2.0,2.0,31,0.00,,,0.00,Wunderground v.1.15,2013-09-01 22:50:00,
2013-09-01 15:55:00,91.1,56.3,29.67,North,360,3.0,6.0,31,0.00,,,0.00,Wunderground v.1.15,2013-09-01 22:55:00,
2013-09-01 16:00:00,91.1,55.3,29.67,NNE,23,3.0,3.0,30,0.00,,,0.00,Wunderground v.1.15,2013-09-01 23:00:00,
2013-09-01 16:10:00,91.2,55.4,29.67,NNW,327,2.0,2.0,30,0.00,,,0.00,Wunderground v.1.15,2013-09-01 23:10:00,
2013-09-01 16:15:00,91.6,55.8,29.67,WNW,300,2.0,2.0,30,0.00,,,0.00,Wunderground v.1.15,2013-09-01 23:15:00,
2013-09-01 16:20:00,91.7,54.0,29.67,NW,323,4.0,5.0,28,0.00,,,0.00,Wunderground v.1.15,2013-09-01 23:20:00,
2013-09-01 16:25:00,91.7,54.9,29.67,NW,311,3.0,5.0,29,0.00,,,0.00,Wunderground v.1.15,2013-09-01 23:25:00,
2013-09-01 16:30:00,91.9,55.1,29.67,NW,312,1.0,1.0,29,0.00,,,0.00,Wunderground v.1.15,2013-09-01 23:30:00,
2013-09-01 16:35:00,91.7,56.8,29.67,NW,312,0.0,1.0,31,0.00,,,0.00,Wunderground v.1.15,2013-09-01 23:35:00,
2013-09-01 16:40:00,91.5,56.6,29.67,NW,323,1.0,3.0,31,0.00,,,0.00,Wunderground v.1.15,2013-09-01 23:40:00,
2013-09-01 16:45:00,91.3,56.4,29.67,NNW,341,3.0,5.0,31,0.00,,,0.00,Wunderground v.1.15,2013-09-01 23:45:00,
2013-09-01 16:50:00,91.3,55.5,29.67,NNW,338,2.0,2.0,30,0.00,,,0.00,Wunderground v.1.15,2013-09-01 23:50:00,
2013-09-01 16:55:00,91.4,56.5,29.67,NW,323,1.0,2.0,31,0.00,,,0.00,Wunderground v.1.15,2013-09-01 23:55:00,
2013-09-01 17:00:00,91.6,53.9,29.67,NW,323,0.0,0.0,28,0.00,,,0.00,Wunderground v.1.15,2013-09-02 00:00:00,
2013-09-01 17:10:00,91.5,55.7,29.67,NNW,344,2.0,2.0,30,0.00,,,0.00,Wunderground v.1.15,2013-09-02 00:10:00,
2013-09-01 17:15:00,91.0,57.9,29.67,NNW,348,2.0,2.0,33,0.00,,,0.00,Wunderground v.1.15,2013-09-02 00:15:00,
2013-09-01 17:20:00,90.6,57.6,29.67,North,355,0.0,2.0,33,0.00,,,0.00,Wunderground v.1.15,2013-09-02 00:20:00,
2013-09-01 17:25:00,90.5,52.9,29.67,NW,311,2.0,2.0,28,0.00,,,0.00,Wunderground v.1.15,2013-09-02 00:25:00,
2013-09-01 17:30:00,90.6,56.7,29.67,NW,315,2.0,2.0,32,0.00,,,0.00,Wunderground v.1.15,2013-09-02 00:30:00,
2013-09-01 17:35:00,90.3,53.7,29.67,NW,316,0.0,2.0,29,0.00,,,0.00,Wunderground v.1.15,2013-09-02 00:35:00,
2013-09-01 17:40:00,90.3,52.8,29.67,WNW,294,1.0,5.0,28,0.00,,,0.00,Wunderground v.1.15,2013-09-02 00:40:00,
2013-09-01 17:45:00,90.5,53.9,29.67,WNW,302,1.0,5.0,29,0.00,,,0.00,Wunderground v.1.15,2013-09-02 00:45:00,
2013-09-01 17:50:00,89.9,54.3,29.67,NNW,340,1.0,1.0,30,0.00,,,0.00,Wunderground v.1.15,2013-09-02 00:50:00,
2013-09-01 17:55:00,89.3,54.7,29.67,NNW,338,1.0,4.0,31,0.00,,,0.00,Wunderground v.1.15,2013-09-02 00:55:00,
2013-09-01 18:00:00,88.6,54.1,29.67,NNW,338,2.0,2.0,31,0.00,,,0.00,Wunderground v.1.15,2013-09-02 01:00:00,
2013-09-01 18:10:00,88.2,53.7,29.67,NNW,336,1.0,1.0,31,0.00,,,0.00,Wunderground v.1.15,2013-09-02 01:10:00,
2013-09-01 18:15:00,87.9,54.4,29.67,NNW,336,0.0,1.0,32,0.00,,,0.00,Wunderground v.1.15,2013-09-02 01:15:00,
2013-09-01 18:20:00,87.2,55.4,29.67,NNW,336,0.0,0.0,34,0.00,,,0.00,Wunderground v.1.15,2013-09-02 01:20:00,
2013-09-01 18:25:00,86.6,54.9,29.67,NNW,331,0.0,3.0,34,0.00,,,0.00,Wunderground v.1.15,2013-09-02 01:25:00,
2013-09-01 18:30:00,85.9,53.5,29.67,WNW,302,2.0,4.0,33,0.00,,,0.00,Wunderground v.1.15,2013-09-02 01:30:00,
2013-09-01 18:35:00,84.9,54.2,29.67,WNW,294,3.0,4.0,35,0.00,,,0.00,Wunderground v.1.15,2013-09-02 01:35:00,
2013-09-01 18:40:00,84.4,54.5,29.67,WNW,292,3.0,3.0,36,0.00,,,0.00,Wunderground v.1.15,2013-09-02 01:40:00,
2013-09-01 18:45:00,83.9,54.8,29.67,WNW,292,2.0,3.0,37,0.00,,,0.00,Wunderground v.1.15,2013-09-02 01:45:00,
2013-09-01 18:50:00,83.0,55.5,29.67,WNW,286,2.0,4.0,39,0.00,,,0.00,Wunderground v.1.15,2013-09-02 01:50:00,
2013-09-01 18:55:00,82.0,55.3,29.67,WNW,286,3.0,4.0,40,0.00,,,0.00,Wunderground v.1.15,2013-09-02 01:55:00,
2013-09-01 19:00:00,81.3,56.0,29.67,WNW,286,2.0,2.0,42,0.00,,,0.00,Wunderground v.1.15,2013-09-02 02:00:00,
2013-09-01 19:10:00,79.9,56.0,29.67,WNW,286,2.0,5.0,44,0.00,,,0.00,Wunderground v.1.15,2013-09-02 02:10:00,
2013-09-01 19:20:00,78.2,56.3,29.67,West,278,4.0,6.0,47,0.00,,,0.00,Wunderground v.1.15,2013-09-02 02:20:00,
2013-09-01 19:30:00,78.7,56.2,29.67,West,277,5.0,6.0,46,0.00,,,0.00,Wunderground v.1.15,2013-09-02 02:30:00,
2013-09-01 19:35:00,79.3,56.1,29.67,WNW,283,5.0,6.0,45,0.00,,,0.00,Wunderground v.1.15,2013-09-02 02:35:00,
2013-09-01 19:45:00,79.2,56.6,29.67,West,276,4.0,6.0,46,0.00,,,0.00,Wunderground v.1.15,2013-09-02 02:45:00,
2013-09-01 19:50:00,79.1,56.5,29.67,West,271,5.0,5.0,46,0.00,,,0.00,Wunderground v.1.15,2013-09-02 02:50:00,
2013-09-01 19:55:00,79.3,56.7,29.67,West,268,6.0,10.0,46,0.00,,,0.00,Wunderground v.1.15,2013-09-02 02:55:00,
2013-09-01 20:00:00,80.1,57.5,29.67,West,267,7.0,7.0,46,0.00,,,0.00,Wunderground v.1.15,2013-09-02 03:00:00,
2013-09-01 20:10:00,80.3,57.6,29.67,West,278,6.0,7.0,46,0.00,,,0.00,Wunderground v.1.15,2013-09-02 03:10:00,
2013-09-01 20:15:00,80.3,57.6,29.67,West,276,6.0,7.0,46,0.00,,,0.00,Wunderground v.1.15,2013-09-02 03:15:00,
2013-09-01 20:20:00,80.2,57.5,29.67,West,275,5.0,5.0,46,0.00,,,0.00,Wunderground v.1.15,2013-09-02 03:20:00,
2013-09-01 20:25:00,79.9,57.3,29.67,West,271,5.0,7.0,46,0.00,,,0.00,Wunderground v.1.15,2013-09-02 03:25:00,
2013-09-01 20:30:00,79.7,57.7,29.67,West,268,6.0,6.0,47,0.00,,,0.00,Wunderground v.1.15,2013-09-02 03:30:00,
2013-09-01 20:35:00,79.4,58.0,29.67,West,261,5.0,6.0,48,0.00,,,0.00,Wunderground v.1.15,2013-09-02 03:35:00,
2013-09-01 20:45:00,79.0,57.6,29.67,West,264,6.0,7.0,48,0.00,,,0.00,Wunderground v.1.15,2013-09-02 03:45:00,
2013-09-01 20:50:00,78.8,58.0,29.67,West,275,5.0,5.0,49,0.00,,,0.00,Wunderground v.1.15,2013-09-02 03:50:00,
2013-09-01 20:55:00,79.2,57.2,29.67,West,276,5.0,7.0,47,0.00,,,0.00,Wunderground v.1.15,2013-09-02 03:55:00,
2013-09-01 21:00:00,80.0,58.0,29.67,West,273,6.0,6.0,47,0.00,,,0.00,Wunderground v.1.15,2013-09-02 04:00:00,
2013-09-01 21:05:00,79.8,57.8,29.67,West,272,5.0,6.0,47,0.00,,,0.00,Wunderground v.1.15,2013-09-02 04:05:00,
2013-09-01 21:10:00,79.8,57.8,29.67,West,278,3.0,5.0,47,0.00,,,0.00,Wunderground v.1.15,2013-09-02 04:10:00,
2013-09-01 21:15:00,80.1,57.5,29.67,West,279,4.0,7.0,46,0.00,,,0.00,Wunderground v.1.15,2013-09-02 04:15:00,
2013-09-01 21:20:00,80.0,58.0,29.67,West,279,4.0,4.0,47,0.00,,,0.00,Wunderground v.1.15,2013-09-02 04:20:00,
2013-09-01 21:25:00,79.4,58.0,29.67,West,278,3.0,4.0,48,0.00,,,0.00,Wunderground v.1.15,2013-09-02 04:25:00,
2013-09-01 21:30:00,78.7,57.9,29.67,West,274,4.0,5.0,49,0.00,,,0.00,Wunderground v.1.15,2013-09-02 04:30:00,
2013-09-01 21:35:00,78.2,57.5,29.67,West,277,5.0,6.0,49,0.00,,,0.00,Wunderground v.1.15,2013-09-02 04:35:00,
2013-09-01 21:40:00,78.2,58.0,29.67,West,278,5.0,5.0,50,0.00,,,0.00,Wunderground v.1.15,2013-09-02 04:40:00,
2013-09-01 21:45:00,78.3,58.1,29.67,West,278,5.0,7.0,50,0.00,,,0.00,Wunderground v.1.15,2013-09-02 04:45:00,
2013-09-01 21:50:00,78.3,58.1,29.67,West,276,5.0,5.0,50,0.00,,,0.00,Wunderground v.1.15,2013-09-02 04:50:00,
2013-09-01 21:55:00,78.1,57.9,29.67,West,279,5.0,5.0,50,0.00,,,0.00,Wunderground v.1.15,2013-09-02 04:55:00,
2013-09-01 22:00:00,78.0,57.9,29.67,West,275,4.0,5.0,50,0.00,,,0.00,Wunderground v.1.15,2013-09-02 05:00:00,
2013-09-01 22:10:00,77.9,57.8,29.67,WNW,284,6.0,7.0,50,0.00,,,0.00,Wunderground v.1.15,2013-09-02 05:10:00,
2013-09-01 22:15:00,78.2,58.0,29.67,WNW,283,6.0,7.0,50,0.00,,,0.00,Wunderground v.1.15,2013-09-02 05:15:00,
2013-09-01 22:20:00,78.3,58.1,29.67,WNW,286,6.0,8.0,50,0.00,,,0.00,Wunderground v.1.15,2013-09-02 05:20:00,
2013-09-01 22:25:00,78.2,57.5,29.67,WNW,286,6.0,8.0,49,0.00,,,0.00,Wunderground v.1.15,2013-09-02 05:25:00,
2013-09-01 22:35:00,77.8,57.7,29.67,West,278,5.0,7.0,50,0.00,,,0.00,Wunderground v.1.15,2013-09-02 05:35:00,
2013-09-01 22:40:00,77.6,57.5,29.67,West,281,6.0,6.0,50,0.00,,,0.00,Wunderground v.1.15,2013-09-02 05:40:00,
2013-09-01 22:45:00,77.7,57.6,29.67,West,281,6.0,7.0,50,0.00,,,0.00,Wunderground v.1.15,2013-09-02 05:45:00,
2013-09-01 22:55:00,77.9,57.8,29.67,WNW,283,6.0,7.0,50,0.00,,,0.00,Wunderground v.1.15,2013-09-02 05:55:00,
2013-09-01 23:00:00,77.9,57.8,29.67,WNW,286,6.0,6.0,50,0.00,,,0.00,Wunderground v.1.15,2013-09-02 06:00:00,
2013-09-01 23:10:00,77.8,58.2,29.67,WNW,294,6.0,6.0,51,0.00,,,0.00,Wunderground v.1.15,2013-09-02 06:10:00,
2013-09-01 23:15:00,77.8,58.2,29.67,WNW,294,5.0,6.0,51,0.00,,,0.00,Wunderground v.1.15,2013-09-02 06:15:00,
2013-09-01 23:20:00,77.7,58.1,29.67,WNW,294,5.0,6.0,51,0.00,,,0.00,Wunderground v.1.15,2013-09-02 06:20:00,
2013-09-01 23:25:00,77.4,58.4,29.67,WNW,297,4.0,6.0,52,0.00,,,0.00,Wunderground v.1.15,2013-09-02 06:25:00,
2013-09-01 23:35:00,76.1,59.3,29.67,WNW,297,1.0,3.0,56,0.00,,,0.00,Wunderground v.1.15,2013-09-02 06:35:00,
2013-09-01 23:40:00,75.1,58.8,29.67,WNW,301,0.0,0.0,57,0.00,,,0.00,Wunderground v.1.15,2013-09-02 06:40:00,
2013-09-01 23:45:00,74.3,59.0,29.67,WNW,301,0.0,0.0,59,0.00,,,0.00,Wunderground v.1.15,2013-09-02 06:45:00,
2013-09-01 23:50:00,73.3,59.0,29.67,WNW,301,0.0,0.0,61,0.00,,,0.00,Wunderground v.1.15,2013-09-02 06:50:00,
2013-09-01 23:55:00,72.8,59.0,29.67,WNW,301,0.0,0.0,62,0.00,,,0.00,Wunderground v.1.15,2013-09-02 06:55:00,